Sunflower Gold — JD2460 — position and weather

sailwx.info

Track history (hours):
 
Tides and Currents Weather Stations Pressure Air Temp Water Temp Dewpoint Dewpoint Depression Visibility Wind Speed Wind Dir Waves Ship Positions

Sunflower Gold

Last reported at 2015-Aug-01 11:18 UTC. Time now 2015-Aug-01 13:50 UTC.
Position N 34°37' E 135°14'.

Length 166 m; draft 5.8 m.

Type: Passenger vessel. MMSI: 431000331.

Date/timePositionNaut miles runAvg speedWind from/ knotsBaromVisibWave heightAir tempDewpointWater temp
2015-Aug-01 11:18N 34°37' E 135°14'2 0.1
2015-Jul-31 22:17N 34°36' E 135°15'2 0.0
2015-Jul-30 10:22N 34°37' E 135°15'5 1.6
2015-Jul-30 07:23N 34°42' E 135°17'0 0.0
2015-Jul-30 06:29N 34°42' E 135°17'0 0.0
2015-Jul-30 05:29N 34°42' E 135°17'0 0.0
2015-Jul-30 04:29N 34°42' E 135°17'0 0.0
2015-Jul-30 03:29N 34°42' E 135°17'0 0.0
2015-Jul-30 02:29N 34°42' E 135°17'0 0.0
2015-Jul-30 01:29N 34°42' E 135°17'0 0.0
2015-Jul-30 00:29N 34°42' E 135°17'0 0.0
2015-Jul-29 23:23N 34°42' E 135°17'0 0.0
2015-Jul-29 22:23N 34°42' E 135°17'0 0.0
2015-Jul-29 21:33N 34°42' E 135°17'1212.1
2015-Jul-29 20:33N 34°35' E 135°05'13 0.4
2015-Jul-28 11:23N 34°34' E 134°50'1720.9
2015-Jul-28 10:33N 34°36' E 135°11'8 7.7
2015-Jul-28 09:33N 34°42' E 135°17'0 0.0
2015-Jul-28 08:29N 34°42' E 135°17'0 0.0
2015-Jul-28 07:23N 34°42' E 135°17'0 0.0
2015-Jul-28 06:23N 34°42' E 135°17'0 0.0
2015-Jul-28 05:29N 34°42' E 135°17'0 0.0
2015-Jul-28 04:29N 34°42' E 135°17'0 0.0
2015-Jul-28 03:29N 34°42' E 135°17'0 0.0
2015-Jul-28 02:23N 34°42' E 135°17'0 0.0
2015-Jul-28 01:23N 34°42' E 135°17'0 0.0
2015-Jul-28 00:29N 34°42' E 135°17'0 0.0
2015-Jul-27 23:29N 34°42' E 135°17'0 0.0
2015-Jul-27 22:23N 34°42' E 135°17'0 0.0
2015-Jul-27 21:33N 34°42' E 135°17'1212.4
2015-Jul-27 20:33N 34°35' E 135°04'13 0.4
2015-Jul-26 11:30N 34°34' E 134°49'1919.8
2015-Jul-26 10:34N 34°36' E 135°11'7 7.3
2015-Jul-26 09:33N 34°42' E 135°17'0 0.0
2015-Jul-26 08:19N 34°42' E 135°17'0 0.0
2015-Jul-26 07:25N 34°42' E 135°17'0 0.0
2015-Jul-26 06:31N 34°42' E 135°17'0 0.0
2015-Jul-26 05:31N 34°42' E 135°17'0 0.0
2015-Jul-26 04:25N 34°42' E 135°17'0 0.0
2015-Jul-26 03:31N 34°42' E 135°17'0 0.0
2015-Jul-26 02:31N 34°42' E 135°17'0 0.0
2015-Jul-26 01:25N 34°42' E 135°17'0 0.0
2015-Jul-26 00:31N 34°42' E 135°17'0 0.0
2015-Jul-25 23:31N 34°42' E 135°17'2 1.7
2015-Jul-25 22:34N 34°41' E 135°18'1414.3
2015-Jul-25 21:33N 34°37' E 135°01'10 0.3
2015-Jul-24 12:23N 34°34' E 134°49'1518.3
2015-Jul-24 11:33N 34°36' E 135°08'10 9.6
2015-Jul-24 10:33N 34°42' E 135°17'0 0.0
2015-Jul-24 09:19N 34°42' E 135°17'0 0.0
2015-Jul-24 08:31N 34°42' E 135°17'0 0.0
2015-Jul-24 07:31N 34°42' E 135°17'0 0.0
2015-Jul-24 06:13N 34°42' E 135°17'0 0.0
2015-Jul-24 05:25N 34°42' E 135°17'0 0.0
2015-Jul-24 04:31N 34°42' E 135°17'0 0.0
2015-Jul-24 03:31N 34°42' E 135°17'0 0.0
2015-Jul-24 02:19N 34°42' E 135°17'0 0.0
2015-Jul-24 01:25N 34°42' E 135°17'0 0.0
2015-Jul-24 00:31N 34°42' E 135°17'0 0.0
2015-Jul-23 23:25N 34°42' E 135°17'0 0.0
2015-Jul-23 22:31N 34°42' E 135°17'0 0.0
2015-Jul-23 21:33N 34°42' E 135°17'1313.5
2015-Jul-23 20:33N 34°36' E 135°02'9 0.3
2015-Jul-22 11:24N 34°35' E 134°51'  
Track history (hours):
 
Tides and Currents Weather Stations Pressure Air Temp Water Temp Dewpoint Dewpoint Depression Visibility Wind Speed Wind Dir Waves Ship Positions

Sunflower Gold

Last reported at 2015-Aug-01 11:18 UTC. Time now 2015-Aug-01 13:50 UTC.
Position N 34°37' E 135°14'.

Length 166 m; draft 5.8 m.

Type: Passenger vessel. MMSI: 431000331.

Date/timePositionNaut miles runAvg speedWind from/ knotsBaromVisibWave heightAir tempDewpointWater temp
2015-Aug-01 11:18N 34°37' E 135°14'2 0.1
2015-Jul-31 22:17N 34°36' E 135°15'2 0.0
2015-Jul-30 10:22N 34°37' E 135°15'5 1.6
2015-Jul-30 07:23N 34°42' E 135°17'0 0.0
2015-Jul-30 06:29N 34°42' E 135°17'0 0.0
2015-Jul-30 05:29N 34°42' E 135°17'0 0.0
2015-Jul-30 04:29N 34°42' E 135°17'0 0.0
2015-Jul-30 03:29N 34°42' E 135°17'0 0.0
2015-Jul-30 02:29N 34°42' E 135°17'0 0.0
2015-Jul-30 01:29N 34°42' E 135°17'0 0.0
2015-Jul-30 00:29N 34°42' E 135°17'0 0.0
2015-Jul-29 23:23N 34°42' E 135°17'0 0.0
2015-Jul-29 22:23N 34°42' E 135°17'0 0.0
2015-Jul-29 21:33N 34°42' E 135°17'1212.1
2015-Jul-29 20:33N 34°35' E 135°05'13 0.4
2015-Jul-28 11:23N 34°34' E 134°50'1720.9
2015-Jul-28 10:33N 34°36' E 135°11'8 7.7
2015-Jul-28 09:33N 34°42' E 135°17'0 0.0
2015-Jul-28 08:29N 34°42' E 135°17'0 0.0
2015-Jul-28 07:23N 34°42' E 135°17'0 0.0
2015-Jul-28 06:23N 34°42' E 135°17'0 0.0
2015-Jul-28 05:29N 34°42' E 135°17'0 0.0
2015-Jul-28 04:29N 34°42' E 135°17'0 0.0
2015-Jul-28 03:29N 34°42' E 135°17'0 0.0
2015-Jul-28 02:23N 34°42' E 135°17'0 0.0
2015-Jul-28 01:23N 34°42' E 135°17'0 0.0
2015-Jul-28 00:29N 34°42' E 135°17'0 0.0
2015-Jul-27 23:29N 34°42' E 135°17'0 0.0
2015-Jul-27 22:23N 34°42' E 135°17'0 0.0
2015-Jul-27 21:33N 34°42' E 135°17'1212.4
2015-Jul-27 20:33N 34°35' E 135°04'13 0.4
2015-Jul-26 11:30N 34°34' E 134°49'1919.8
2015-Jul-26 10:34N 34°36' E 135°11'7 7.3
2015-Jul-26 09:33N 34°42' E 135°17'0 0.0
2015-Jul-26 08:19N 34°42' E 135°17'0 0.0
2015-Jul-26 07:25N 34°42' E 135°17'0 0.0
2015-Jul-26 06:31N 34°42' E 135°17'0 0.0
2015-Jul-26 05:31N 34°42' E 135°17'0 0.0
2015-Jul-26 04:25N 34°42' E 135°17'0 0.0
2015-Jul-26 03:31N 34°42' E 135°17'0 0.0
2015-Jul-26 02:31N 34°42' E 135°17'0 0.0
2015-Jul-26 01:25N 34°42' E 135°17'0 0.0
2015-Jul-26 00:31N 34°42' E 135°17'0 0.0
2015-Jul-25 23:31N 34°42' E 135°17'2 1.7
2015-Jul-25 22:34N 34°41' E 135°18'1414.3
2015-Jul-25 21:33N 34°37' E 135°01'10 0.3
2015-Jul-24 12:23N 34°34' E 134°49'1518.3
2015-Jul-24 11:33N 34°36' E 135°08'10 9.6
2015-Jul-24 10:33N 34°42' E 135°17'0 0.0
2015-Jul-24 09:19N 34°42' E 135°17'0 0.0
2015-Jul-24 08:31N 34°42' E 135°17'0 0.0
2015-Jul-24 07:31N 34°42' E 135°17'0 0.0
2015-Jul-24 06:13N 34°42' E 135°17'0 0.0
2015-Jul-24 05:25N 34°42' E 135°17'0 0.0
2015-Jul-24 04:31N 34°42' E 135°17'0 0.0
2015-Jul-24 03:31N 34°42' E 135°17'0 0.0
2015-Jul-24 02:19N 34°42' E 135°17'0 0.0
2015-Jul-24 01:25N 34°42' E 135°17'0 0.0
2015-Jul-24 00:31N 34°42' E 135°17'0 0.0
2015-Jul-23 23:25N 34°42' E 135°17'0 0.0
2015-Jul-23 22:31N 34°42' E 135°17'0 0.0
2015-Jul-23 21:33N 34°42' E 135°17'1313.5
2015-Jul-23 20:33N 34°36' E 135°02'9 0.3
2015-Jul-22 11:24N 34°35' E 134°51'  

Dump ship's entire track history